• Join FlightAware (Why Join?)
  • Login
  • US Flag 
07:24PM EDT


 

Airport Tracker/Info


-or-


 

Live Flight TrackerFlight Track Log ✈ AWE2791 ✈ 03-Jul-2014 ✈ KCLT - KDSM

Flight Track Log - Related Links

Times and Time Zones

All times are in EDT time to prevent confusion due to time zone crossing. See the AWE2791 flight status page for this flight to view local times or setup timezone preferences in your user account.

Time Position Orientation Groundspeed Altitude Reporting Facility
EDT Latitude Longitude Course Direction KTS MPH feet Rate Location/Type
12:01PM 35.1194 -81.0044 268° West 270 311 3,800  Level Atlanta Center
12:03PM 35.1153 -81.1772 268° West 286 329 8,000 2,100 Climbing Atlanta Center
12:04PM 35.1217 -81.2761 275° West 286 329 10,200 1,800 Climbing Atlanta Center
12:05PM 35.1264 -81.3875 273° West 309 356 11,600 1,860 Climbing Atlanta Center
12:07PM 35.1375 -81.6233 273° West 351 404 15,800 1,980 Climbing Atlanta Center
12:08PM 35.1294 -81.7481 266° West 361 415 17,700 1,500 Climbing Atlanta Center
12:09PM 35.1214 -81.8778 266° West 374 430 18,800 1,380 Climbing Atlanta Center
12:12PM 35.0922 -82.2719 263° West 396 456 23,300 1,500 Climbing Atlanta Center
12:13PM 35.1231 -82.3983 287° West 389 448 24,800 1,380 Climbing Atlanta Center
12:15PM 35.1867 -82.6539 287° West 396 456 27,600 1,260 Climbing Atlanta Center
12:16PM 35.2194 -82.7803 288° West 396 456 28,600 960 Climbing Atlanta Center
12:18PM 35.2867 -83.0439 287° West 403 464 30,600 780 Climbing Atlanta Center
12:20PM 35.3556 -83.3186 286° West 407 468 32,000 420 Climbing Memphis Center
12:21PM 35.3914 -83.4681 286° West 422 486 32,000  Level Atlanta Center
12:23PM 35.4656 -83.7633 287° West 450 518 32,000  Level Atlanta Center
12:24PM 35.4992 -83.9111 286° West 455 524 32,000  Level Atlanta Center
12:25PM 35.5367 -84.0592 287° West 455 524 32,000  Level Atlanta Center
12:27PM 35.6072 -84.3531 287° West 455 524 32,000  Level Atlanta Center
12:28PM 35.6422 -84.5014 286° West 455 524 32,000  Level Atlanta Center
12:29PM 35.6750 -84.6472 286° West 455 524 32,000  Level Atlanta Center
12:31PM 35.7486 -84.9586 286° West 438 504 32,000  Level Kansas City Center
12:32PM 35.7933 -85.1478 286° West 442 509 32,000  Level Memphis Center
12:34PM 35.8508 -85.3842 287° West 430 495 32,000  Level Kansas City Center
12:35PM 35.9506 -85.5408 308° West 436 502 32,000  Level Indianapolis Center
12:36PM 36.0356 -85.6492 314° West 439 505 32,000  Level Memphis Center
12:37PM 36.1394 -85.7825 314° West 444 511 32,000  Level Memphis Center
12:39PM 36.2189 -85.8856 314° West 445 512 32,000  Level Memphis Center
12:40PM 36.3061 -85.9972 314° West 446 513 32,000  Level Memphis Center
12:41PM 36.4064 -86.1281 314° West 446 513 32,000  Level Memphis Center
12:42PM 36.4925 -86.2406 314° West 446 513 32,000  Level Memphis Center
12:43PM 36.5778 -86.3519 314° West 446 513 32,000  Level Memphis Center
12:44PM 36.6625 -86.4639 313° West 445 512 32,000  Level Indianapolis Center
12:45PM 36.7478 -86.5778 313° West 446 513 32,000  Level Memphis Center
12:46PM 36.8331 -86.6900 314° West 446 513 32,000  Level Memphis Center
12:48PM 37.0022 -86.9197 313° West 446 513 32,000  Level Indianapolis Center
12:49PM 37.1014 -87.0506 314° West 446 513 32,000  Level Memphis Center
12:50PM 37.1864 -87.1661 313° West 445 512 32,000  Level Memphis Center
12:52PM 37.3547 -87.3931 313° West 443 510 32,000  Level Memphis Center
12:53PM 37.4381 -87.5078 312° West 443 510 32,000  Level Indianapolis Center
12:54PM 37.5572 -87.6708 313° West 442 509 32,000  Level Kansas City Center
12:55PM 37.6208 -87.7567 313° West 440 506 32,000  Level Memphis Center
12:57PM 37.7719 -87.9664 312° West 439 505 32,000  Level Indianapolis Center
12:58PM 37.8544 -88.0808 312° West 439 505 32,000  Level Indianapolis Center
12:59PM 37.9367 -88.1944 313° West 438 504 32,000  Level Indianapolis Center
01:00PM 38.0186 -88.3089 312° West 438 504 32,000  Level Indianapolis Center
01:01PM 38.0683 -88.3786 312° West 437 503 32,000  Level Kansas City Center
01:02PM 38.1508 -88.4917 313° West 437 503 32,000  Level Kansas City Center
01:03PM 38.2306 -88.6067 311° West 435 501 32,000  Level Kansas City Center
01:04PM 38.3156 -88.7256 312° West 435 501 32,000  Level Kansas City Center
01:06PM 38.4881 -88.9717 312° West 433 498 32,000  Level Kansas City Center
01:07PM 38.5672 -89.0853 312° West 429 494 32,000  Level Kansas City Center
01:08PM 38.6481 -89.2008 312° West 429 494 32,000  Level Kansas City Center
01:09PM 38.7281 -89.3153 312° West 429 494 32,000  Level Kansas City Center
01:10PM 38.8119 -89.4383 311° West 429 494 32,000  Level Kansas City Center
01:11PM 38.8908 -89.5536 311° West 429 494 32,000  Level Kansas City Center
01:13PM 39.0567 -89.7958 310° West 428 493 32,000  Level Kansas City Center
01:15PM 39.1892 -89.9944 311° West 465 535 32,000  Level Chicago Center
01:16PM 39.2892 -90.1378 312° West 430 495 32,000  Level Kansas City Center
01:17PM 39.3669 -90.2542 311° West 430 495 32,000  Level Kansas City Center
01:18PM 39.4603 -90.3950 311° West 430 495 32,000  Level Kansas City Center
01:19PM 39.5389 -90.5131 311° West 431 496 32,000  Level Kansas City Center
01:22PM 39.7469 -90.8286 311° West 433 498 32,000  Level Chicago Center
01:23PM 39.8564 -90.9936 311° West 431 496 32,000  Level Kansas City Center
01:24PM 39.9331 -91.1119 310° West 431 496 32,000  Level Kansas City Center
01:25PM 40.0258 -91.2522 311° West 431 496 32,000  Level Kansas City Center
01:27PM 40.1481 -91.4411 310° West 429 494 32,000  Level Chicago Center
01:29PM 40.2544 -91.6047 310° West 430 495 32,000  Level Kansas City Center
01:30PM 40.3289 -91.7222 310° West 430 495 32,000  Level Kansas City Center
01:30PM 40.3897 -91.8150 311° West 426 490 32,000  Level Chicago Center
01:31PM 40.4642 -91.9322 310° West 426 490 32,000  Level Chicago Center
01:32PM 40.5539 -92.0739 310° West 426 490 32,000 -720 Level Chicago Center
01:33PM 40.6289 -92.1922 310° West 426 490 30,600 -1,380 Descending Chicago Center
01:35PM 40.7711 -92.4175 310° West 393 452 27,900 -1,800 Descending Chicago Center
01:36PM 40.8469 -92.5400 309° West 367 422 25,100 -2,220 Descending Chicago Center
01:38PM 40.9047 -92.6339 309° West 338 389 23,400 -2,160 Descending Chicago Center
01:39PM 40.9611 -92.7250 309° West 325 374 20,600 -2,700 Descending Chicago Center
01:40PM 41.0192 -92.8178 310° West 326 375 17,800 -2,760 Descending Chicago Center
01:41PM 41.1114 -92.9669 309° West 327 376 13,700 -2,700 Descending Minneapolis Center
01:42PM 41.1678 -93.0611 309° West 328 377 11,000 -1,920 Descending Minneapolis Center
01:43PM 41.2475 -93.1706 314° West 267 307 9,200 -1,440 Descending Minneapolis Center
01:45PM 41.3356 -93.3200 308° West 248 285 6,200 -1,500 Descending Minneapolis Center
01:46PM 41.3742 -93.3825 309° West 240 276 4,800 -1,200 Descending Minneapolis Center
01:47PM 41.4147 -93.4508 308° West 237 273 3,900 -780 Descending Minneapolis Center
01:49PM 41.4853 -93.5681 304° West 161 185 2,500 -720 Descending Minneapolis Center
01:50PM 41.5042 -93.6142 299° West 145 167 1,800 -780 Descending Minneapolis Center
01:51PM 41.5300 -93.6519 312° West 141 162 1,000 -240 Descending Minneapolis Center
01:55PM 41.5372 -93.6547 90° East 20 23 1,000  Level Minneapolis Center
01:57PM 41.5339 -93.6486 126° Southeast 14 16 1,000  Level Minneapolis Center
01:58PM 41.5325 -93.6503 222° Southwest 13 15 1,000  Level Minneapolis Center
02:00PM 41.5340 -93.6631 90° East  Level Estimated